British Innovator — VQHO7 — position and weather

sailwx.info

Track history (hours):
 
Tides and Currents Weather Stations Pressure Air Temp Water Temp Dewpoint Dewpoint Depression Visibility Wind Speed Wind Dir Waves Ship Positions

British Innovator

Last reported at 2018-Apr-01 04:37 UTC. Time now 2018-Jun-23 15:24 UTC.
Position N 23°22' E 119°54'.
Warning: this ship's position is months out of date.

Length 278.8 m; beam 42.6 m; draft 12.1 m.

Type: Tanker. MMSI: 235630000.

Date/timePositionNaut miles runAvg speedWind from/ knotsBaromVisibWave heightAir tempDewpointWater temp
2018-Apr-01 04:37N 23°22' E 119°54'216.4
2018-Apr-01 04:29N 23°24' E 119°54'815.8
2018-Apr-01 03:58N 23°32' E 119°54'1314.5
2018-Apr-01 03:04N 23°45' E 119°53'114.7
2018-Apr-01 03:00N 23°46' E 119°52'6 0.2
2018-Mar-30 18:14N 23°52' E 119°52'313.8
2018-Mar-30 18:00N 23°49' E 119°52'1013.9
2018-Mar-30 17:18N 23°39' E 119°53'1014.2
2018-Mar-30 16:37N 23°29' E 119°54'1314.9
2018-Mar-30 15:42N 23°16' E 119°54'415.7
2018-Mar-30 15:27N 23°12' E 119°53'815.7
2018-Mar-30 14:56N 23°04' E 119°53'915.9
2018-Mar-30 14:23N 22°55' E 119°53'615.7
2018-Mar-30 14:00N 22°49' E 119°52'815.0
2018-Mar-30 13:30N 22°42' E 119°52'816.4
2018-Mar-30 13:01N 22°33' E 119°52'916.8
2018-Mar-30 12:29N 22°25' E 119°52'  
Track history (hours):
 
Tides and Currents Weather Stations Pressure Air Temp Water Temp Dewpoint Dewpoint Depression Visibility Wind Speed Wind Dir Waves Ship Positions

British Innovator

Last reported at 2018-Apr-01 04:37 UTC. Time now 2018-Jun-23 15:24 UTC.
Position N 23°22' E 119°54'.
Warning: this ship's position is months out of date.

Length 278.8 m; beam 42.6 m; draft 12.1 m.

Type: Tanker. MMSI: 235630000.

Date/timePositionNaut miles runAvg speedWind from/ knotsBaromVisibWave heightAir tempDewpointWater temp
2018-Apr-01 04:37N 23°22' E 119°54'216.4
2018-Apr-01 04:29N 23°24' E 119°54'815.8
2018-Apr-01 03:58N 23°32' E 119°54'1314.5
2018-Apr-01 03:04N 23°45' E 119°53'114.7
2018-Apr-01 03:00N 23°46' E 119°52'6 0.2
2018-Mar-30 18:14N 23°52' E 119°52'313.8
2018-Mar-30 18:00N 23°49' E 119°52'1013.9
2018-Mar-30 17:18N 23°39' E 119°53'1014.2
2018-Mar-30 16:37N 23°29' E 119°54'1314.9
2018-Mar-30 15:42N 23°16' E 119°54'415.7
2018-Mar-30 15:27N 23°12' E 119°53'815.7
2018-Mar-30 14:56N 23°04' E 119°53'915.9
2018-Mar-30 14:23N 22°55' E 119°53'615.7
2018-Mar-30 14:00N 22°49' E 119°52'815.0
2018-Mar-30 13:30N 22°42' E 119°52'816.4
2018-Mar-30 13:01N 22°33' E 119°52'916.8
2018-Mar-30 12:29N 22°25' E 119°52'  

Dump ship's entire track history